sensor_id;sensor_type;location;lat;lon;timestamp;P1;durP1;ratioP1;P2;durP2;ratioP2
13708;SDS011;54933;51.908;7.730;2023-03-04T00:02:01;0.80;;;0.80;;
13708;SDS011;54933;51.908;7.730;2023-03-04T00:04:27;2.73;;;0.90;;
13708;SDS011;54933;51.908;7.730;2023-03-04T00:06:52;1.60;;;1.10;;
13708;SDS011;54933;51.908;7.730;2023-03-04T00:09:17;1.00;;;0.90;;
13708;SDS011;54933;51.908;7.730;2023-03-04T00:11:43;0.90;;;0.90;;
13708;SDS011;54933;51.908;7.730;2023-03-04T00:14:08;1.00;;;0.80;;
13708;SDS011;54933;51.908;7.730;2023-03-04T00:16:34;1.07;;;1.00;;
13708;SDS011;54933;51.908;7.730;2023-03-04T00:18:59;1.03;;;0.90;;
13708;SDS011;54933;51.908;7.730;2023-03-04T00:21:24;0.60;;;0.60;;
13708;SDS011;54933;51.908;7.730;2023-03-04T00:23:50;2.30;;;1.10;;
13708;SDS011;54933;51.908;7.730;2023-03-04T00:26:15;0.87;;;0.87;;
13708;SDS011;54933;51.908;7.730;2023-03-04T00:28:42;1.37;;;1.10;;
13708;SDS011;54933;51.908;7.730;2023-03-04T00:31:07;1.00;;;0.87;;
13708;SDS011;54933;51.908;7.730;2023-03-04T00:33:33;1.03;;;0.90;;
13708;SDS011;54933;51.908;7.730;2023-03-04T00:35:59;0.80;;;0.80;;
13708;SDS011;54933;51.908;7.730;2023-03-04T00:38:25;1.07;;;0.87;;
13708;SDS011;54933;51.908;7.730;2023-03-04T00:40:50;1.07;;;1.00;;
13708;SDS011;54933;51.908;7.730;2023-03-04T00:43:15;0.90;;;0.90;;
13708;SDS011;54933;51.908;7.730;2023-03-04T00:45:41;0.70;;;0.70;;
13708;SDS011;54933;51.908;7.730;2023-03-04T00:48:06;1.27;;;0.73;;
13708;SDS011;54933;51.908;7.730;2023-03-04T00:50:31;1.47;;;0.90;;
13708;SDS011;54933;51.908;7.730;2023-03-04T00:52:57;0.70;;;0.70;;
13708;SDS011;54933;51.908;7.730;2023-03-04T00:55:22;0.60;;;0.60;;
13708;SDS011;54933;51.908;7.730;2023-03-04T00:57:47;0.77;;;0.77;;
13708;SDS011;54933;51.908;7.730;2023-03-04T01:00:13;0.67;;;0.67;;
13708;SDS011;54933;51.908;7.730;2023-03-04T01:02:38;0.70;;;0.70;;
13708;SDS011;54933;51.908;7.730;2023-03-04T01:05:04;1.77;;;0.90;;
13708;SDS011;54933;51.908;7.730;2023-03-04T01:07:31;0.93;;;0.70;;
13708;SDS011;54933;51.908;7.730;2023-03-04T01:09:56;0.90;;;0.90;;
13708;SDS011;54933;51.908;7.730;2023-03-04T01:12:22;0.60;;;0.60;;
13708;SDS011;54933;51.908;7.730;2023-03-04T01:14:47;1.07;;;0.90;;
13708;SDS011;54933;51.908;7.730;2023-03-04T01:17:12;0.87;;;0.80;;
13708;SDS011;54933;51.908;7.730;2023-03-04T01:19:38;1.43;;;0.90;;
13708;SDS011;54933;51.908;7.730;2023-03-04T01:22:03;0.70;;;0.70;;
13708;SDS011;54933;51.908;7.730;2023-03-04T01:24:29;1.80;;;0.90;;
13708;SDS011;54933;51.908;7.730;2023-03-04T01:26:54;0.67;;;0.63;;
13708;SDS011;54933;51.908;7.730;2023-03-04T01:29:20;0.70;;;0.70;;
13708;SDS011;54933;51.908;7.730;2023-03-04T01:31:45;0.97;;;0.97;;
13708;SDS011;54933;51.908;7.730;2023-03-04T01:34:10;1.37;;;1.00;;
13708;SDS011;54933;51.908;7.730;2023-03-04T01:36:36;1.20;;;0.80;;
13708;SDS011;54933;51.908;7.730;2023-03-04T01:39:01;0.70;;;0.70;;
13708;SDS011;54933;51.908;7.730;2023-03-04T01:41:26;0.67;;;0.63;;
13708;SDS011;54933;51.908;7.730;2023-03-04T01:43:54;0.63;;;0.60;;
13708;SDS011;54933;51.908;7.730;2023-03-04T01:46:21;1.07;;;0.80;;
13708;SDS011;54933;51.908;7.730;2023-03-04T01:48:46;0.80;;;0.60;;
13708;SDS011;54933;51.908;7.730;2023-03-04T01:51:13;1.10;;;1.00;;
13708;SDS011;54933;51.908;7.730;2023-03-04T01:53:40;1.33;;;0.80;;
13708;SDS011;54933;51.908;7.730;2023-03-04T01:56:21;1.37;;;1.00;;
13708;SDS011;54933;51.908;7.730;2023-03-04T01:59:12;0.93;;;0.93;;
13708;SDS011;54933;51.908;7.730;2023-03-04T02:01:44;0.63;;;0.63;;
13708;SDS011;54933;51.908;7.730;2023-03-04T02:04:11;0.63;;;0.60;;
13708;SDS011;54933;51.908;7.730;2023-03-04T02:06:38;1.30;;;0.70;;
13708;SDS011;54933;51.908;7.730;2023-03-04T02:09:05;1.53;;;0.80;;
13708;SDS011;54933;51.908;7.730;2023-03-04T02:11:31;1.17;;;0.77;;
13708;SDS011;54933;51.908;7.730;2023-03-04T02:13:57;0.70;;;0.70;;
13708;SDS011;54933;51.908;7.730;2023-03-04T02:16:23;0.83;;;0.83;;
13708;SDS011;54933;51.908;7.730;2023-03-04T02:18:48;1.47;;;1.13;;
13708;SDS011;54933;51.908;7.730;2023-03-04T02:21:32;0.80;;;0.60;;
13708;SDS011;54933;51.908;7.730;2023-03-04T02:26:32;0.77;;;0.70;;
13708;SDS011;54933;51.908;7.730;2023-03-04T02:28:59;0.80;;;0.63;;
13708;SDS011;54933;51.908;7.730;2023-03-04T02:31:27;0.77;;;0.60;;
13708;SDS011;54933;51.908;7.730;2023-03-04T02:33:57;3.00;;;0.70;;
13708;SDS011;54933;51.908;7.730;2023-03-04T02:36:24;0.73;;;0.73;;
13708;SDS011;54933;51.908;7.730;2023-03-04T02:38:51;0.93;;;0.60;;
13708;SDS011;54933;51.908;7.730;2023-03-04T02:41:19;0.90;;;0.70;;
13708;SDS011;54933;51.908;7.730;2023-03-04T02:43:49;0.90;;;0.63;;
13708;SDS011;54933;51.908;7.730;2023-03-04T02:46:16;0.83;;;0.70;;
13708;SDS011;54933;51.908;7.730;2023-03-04T02:48:42;0.70;;;0.70;;
13708;SDS011;54933;51.908;7.730;2023-03-04T02:51:07;0.80;;;0.60;;
13708;SDS011;54933;51.908;7.730;2023-03-04T02:53:32;0.70;;;0.70;;
13708;SDS011;54933;51.908;7.730;2023-03-04T02:55:57;0.60;;;0.60;;
13708;SDS011;54933;51.908;7.730;2023-03-04T02:58:23;1.33;;;0.80;;
13708;SDS011;54933;51.908;7.730;2023-03-04T03:00:48;0.70;;;0.70;;
13708;SDS011;54933;51.908;7.730;2023-03-04T03:03:13;0.77;;;0.70;;
13708;SDS011;54933;51.908;7.730;2023-03-04T03:05:39;0.60;;;0.60;;
13708;SDS011;54933;51.908;7.730;2023-03-04T03:08:04;0.70;;;0.70;;
13708;SDS011;54933;51.908;7.730;2023-03-04T03:10:30;0.60;;;0.60;;
13708;SDS011;54933;51.908;7.730;2023-03-04T03:12:56;1.17;;;0.60;;
13708;SDS011;54933;51.908;7.730;2023-03-04T03:15:21;0.73;;;0.50;;
13708;SDS011;54933;51.908;7.730;2023-03-04T03:17:47;1.03;;;0.63;;
13708;SDS011;54933;51.908;7.730;2023-03-04T03:20:12;0.60;;;0.60;;
13708;SDS011;54933;51.908;7.730;2023-03-04T03:22:39;0.50;;;0.50;;
13708;SDS011;54933;51.908;7.730;2023-03-04T03:25:05;0.60;;;0.60;;
13708;SDS011;54933;51.908;7.730;2023-03-04T03:27:31;0.70;;;0.70;;
13708;SDS011;54933;51.908;7.730;2023-03-04T03:29:56;1.23;;;0.60;;
13708;SDS011;54933;51.908;7.730;2023-03-04T03:32:22;1.83;;;0.70;;
13708;SDS011;54933;51.908;7.730;2023-03-04T03:34:47;0.70;;;0.57;;
13708;SDS011;54933;51.908;7.730;2023-03-04T03:37:12;0.80;;;0.70;;
13708;SDS011;54933;51.908;7.730;2023-03-04T03:39:38;0.70;;;0.70;;
13708;SDS011;54933;51.908;7.730;2023-03-04T03:42:04;1.43;;;0.57;;
13708;SDS011;54933;51.908;7.730;2023-03-04T03:44:29;1.50;;;0.83;;
13708;SDS011;54933;51.908;7.730;2023-03-04T03:46:55;0.60;;;0.37;;
13708;SDS011;54933;51.908;7.730;2023-03-04T03:49:20;0.60;;;0.60;;
13708;SDS011;54933;51.908;7.730;2023-03-04T03:51:45;0.57;;;0.57;;
13708;SDS011;54933;51.908;7.730;2023-03-04T03:54:11;0.50;;;0.50;;
13708;SDS011;54933;51.908;7.730;2023-03-04T03:56:36;0.57;;;0.57;;
13708;SDS011;54933;51.908;7.730;2023-03-04T03:59:01;0.80;;;0.67;;
13708;SDS011;54933;51.908;7.730;2023-03-04T04:01:26;0.80;;;0.80;;
13708;SDS011;54933;51.908;7.730;2023-03-04T04:03:52;0.93;;;0.53;;
13708;SDS011;54933;51.908;7.730;2023-03-04T04:06:17;1.43;;;0.70;;
13708;SDS011;54933;51.908;7.730;2023-03-04T04:08:43;1.10;;;0.57;;
13708;SDS011;54933;51.908;7.730;2023-03-04T04:11:09;0.40;;;0.40;;
13708;SDS011;54933;51.908;7.730;2023-03-04T04:13:36;1.43;;;0.70;;
13708;SDS011;54933;51.908;7.730;2023-03-04T04:16:01;1.10;;;0.63;;
13708;SDS011;54933;51.908;7.730;2023-03-04T04:18:26;1.40;;;0.50;;
13708;SDS011;54933;51.908;7.730;2023-03-04T04:20:52;0.57;;;0.57;;
13708;SDS011;54933;51.908;7.730;2023-03-04T04:23:18;0.40;;;0.40;;
13708;SDS011;54933;51.908;7.730;2023-03-04T04:25:43;0.80;;;0.80;;
13708;SDS011;54933;51.908;7.730;2023-03-04T04:28:09;0.40;;;0.40;;
13708;SDS011;54933;51.908;7.730;2023-03-04T04:30:34;1.20;;;0.57;;
13708;SDS011;54933;51.908;7.730;2023-03-04T04:32:59;0.60;;;0.57;;
13708;SDS011;54933;51.908;7.730;2023-03-04T04:35:26;0.67;;;0.57;;
13708;SDS011;54933;51.908;7.730;2023-03-04T04:37:52;0.50;;;0.50;;
13708;SDS011;54933;51.908;7.730;2023-03-04T04:40:17;0.40;;;0.40;;
13708;SDS011;54933;51.908;7.730;2023-03-04T04:42:42;0.40;;;0.40;;
13708;SDS011;54933;51.908;7.730;2023-03-04T04:45:08;0.83;;;0.63;;
13708;SDS011;54933;51.908;7.730;2023-03-04T04:47:33;1.03;;;0.50;;
13708;SDS011;54933;51.908;7.730;2023-03-04T04:49:59;0.50;;;0.50;;
13708;SDS011;54933;51.908;7.730;2023-03-04T04:52:24;0.57;;;0.50;;
13708;SDS011;54933;51.908;7.730;2023-03-04T04:54:49;0.63;;;0.63;;
13708;SDS011;54933;51.908;7.730;2023-03-04T04:57:14;0.37;;;0.37;;
13708;SDS011;54933;51.908;7.730;2023-03-04T04:59:40;1.40;;;0.60;;
13708;SDS011;54933;51.908;7.730;2023-03-04T05:02:05;0.53;;;0.53;;
13708;SDS011;54933;51.908;7.730;2023-03-04T05:04:30;2.00;;;0.60;;
13708;SDS011;54933;51.908;7.730;2023-03-04T05:06:56;0.50;;;0.50;;
13708;SDS011;54933;51.908;7.730;2023-03-04T05:09:21;1.80;;;0.70;;
13708;SDS011;54933;51.908;7.730;2023-03-04T05:11:47;0.40;;;0.40;;
13708;SDS011;54933;51.908;7.730;2023-03-04T05:14:12;1.50;;;0.50;;
13708;SDS011;54933;51.908;7.730;2023-03-04T05:16:38;0.83;;;0.53;;
13708;SDS011;54933;51.908;7.730;2023-03-04T05:19:03;0.50;;;0.50;;
13708;SDS011;54933;51.908;7.730;2023-03-04T05:21:28;0.50;;;0.50;;
13708;SDS011;54933;51.908;7.730;2023-03-04T05:23:53;0.60;;;0.60;;
13708;SDS011;54933;51.908;7.730;2023-03-04T05:26:19;0.93;;;0.60;;
13708;SDS011;54933;51.908;7.730;2023-03-04T05:28:44;0.47;;;0.33;;
13708;SDS011;54933;51.908;7.730;2023-03-04T05:31:09;0.60;;;0.60;;
13708;SDS011;54933;51.908;7.730;2023-03-04T05:33:35;0.50;;;0.40;;
13708;SDS011;54933;51.908;7.730;2023-03-04T05:36:01;0.57;;;0.43;;
13708;SDS011;54933;51.908;7.730;2023-03-04T05:38:27;0.47;;;0.40;;
13708;SDS011;54933;51.908;7.730;2023-03-04T05:40:56;0.90;;;0.30;;
13708;SDS011;54933;51.908;7.730;2023-03-04T05:43:23;0.60;;;0.43;;
13708;SDS011;54933;51.908;7.730;2023-03-04T05:45:49;0.67;;;0.47;;
13708;SDS011;54933;51.908;7.730;2023-03-04T05:48:14;1.07;;;0.60;;
13708;SDS011;54933;51.908;7.730;2023-03-04T05:50:40;1.17;;;0.50;;
13708;SDS011;54933;51.908;7.730;2023-03-04T05:53:05;0.40;;;0.40;;
13708;SDS011;54933;51.908;7.730;2023-03-04T05:55:31;0.90;;;0.50;;
13708;SDS011;54933;51.908;7.730;2023-03-04T05:57:56;0.93;;;0.40;;
13708;SDS011;54933;51.908;7.730;2023-03-04T06:00:22;0.67;;;0.60;;
13708;SDS011;54933;51.908;7.730;2023-03-04T06:02:47;0.50;;;0.50;;
13708;SDS011;54933;51.908;7.730;2023-03-04T06:05:13;0.53;;;0.53;;
13708;SDS011;54933;51.908;7.730;2023-03-04T06:07:39;0.77;;;0.53;;
13708;SDS011;54933;51.908;7.730;2023-03-04T06:10:07;0.30;;;0.30;;
13708;SDS011;54933;51.908;7.730;2023-03-04T06:12:32;0.93;;;0.50;;
13708;SDS011;54933;51.908;7.730;2023-03-04T06:14:58;0.43;;;0.37;;
13708;SDS011;54933;51.908;7.730;2023-03-04T06:17:23;0.30;;;0.30;;
13708;SDS011;54933;51.908;7.730;2023-03-04T06:19:48;0.83;;;0.70;;
13708;SDS011;54933;51.908;7.730;2023-03-04T06:22:14;0.77;;;0.23;;
13708;SDS011;54933;51.908;7.730;2023-03-04T06:24:39;0.50;;;0.50;;
13708;SDS011;54933;51.908;7.730;2023-03-04T06:27:04;0.40;;;0.40;;
13708;SDS011;54933;51.908;7.730;2023-03-04T06:29:29;0.77;;;0.77;;
13708;SDS011;54933;51.908;7.730;2023-03-04T06:31:55;0.30;;;0.30;;
13708;SDS011;54933;51.908;7.730;2023-03-04T06:34:20;0.33;;;0.33;;
13708;SDS011;54933;51.908;7.730;2023-03-04T06:36:46;0.60;;;0.37;;
13708;SDS011;54933;51.908;7.730;2023-03-04T06:39:11;0.40;;;0.40;;
13708;SDS011;54933;51.908;7.730;2023-03-04T06:41:37;1.13;;;0.40;;
13708;SDS011;54933;51.908;7.730;2023-03-04T06:44:03;0.50;;;0.50;;
13708;SDS011;54933;51.908;7.730;2023-03-04T06:46:29;0.60;;;0.60;;
13708;SDS011;54933;51.908;7.730;2023-03-04T06:48:54;0.77;;;0.60;;
13708;SDS011;54933;51.908;7.730;2023-03-04T06:51:20;0.50;;;0.50;;
13708;SDS011;54933;51.908;7.730;2023-03-04T06:53:45;0.30;;;0.30;;
13708;SDS011;54933;51.908;7.730;2023-03-04T06:56:11;0.77;;;0.40;;
13708;SDS011;54933;51.908;7.730;2023-03-04T06:58:39;0.70;;;0.70;;
13708;SDS011;54933;51.908;7.730;2023-03-04T07:01:12;1.13;;;0.60;;
13708;SDS011;54933;51.908;7.730;2023-03-04T07:03:37;0.60;;;0.60;;
13708;SDS011;54933;51.908;7.730;2023-03-04T07:06:03;0.53;;;0.53;;
13708;SDS011;54933;51.908;7.730;2023-03-04T07:08:28;1.27;;;0.60;;
13708;SDS011;54933;51.908;7.730;2023-03-04T07:10:53;1.80;;;0.57;;
13708;SDS011;54933;51.908;7.730;2023-03-04T07:13:19;0.73;;;0.40;;
13708;SDS011;54933;51.908;7.730;2023-03-04T07:15:44;0.30;;;0.30;;
13708;SDS011;54933;51.908;7.730;2023-03-04T07:18:09;0.63;;;0.40;;
13708;SDS011;54933;51.908;7.730;2023-03-04T07:20:34;0.20;;;0.20;;
13708;SDS011;54933;51.908;7.730;2023-03-04T07:23:00;3.00;;;0.63;;
13708;SDS011;54933;51.908;7.730;2023-03-04T07:25:26;1.60;;;0.80;;
13708;SDS011;54933;51.908;7.730;2023-03-04T07:27:51;2.03;;;0.73;;
13708;SDS011;54933;51.908;7.730;2023-03-04T07:30:16;3.47;;;0.60;;
13708;SDS011;54933;51.908;7.730;2023-03-04T07:32:42;1.10;;;0.67;;
13708;SDS011;54933;51.908;7.730;2023-03-04T07:35:07;0.60;;;0.37;;
13708;SDS011;54933;51.908;7.730;2023-03-04T07:37:32;2.30;;;0.50;;
13708;SDS011;54933;51.908;7.730;2023-03-04T07:39:57;0.40;;;0.40;;
13708;SDS011;54933;51.908;7.730;2023-03-04T07:42:23;2.33;;;0.70;;
13708;SDS011;54933;51.908;7.730;2023-03-04T07:44:48;0.50;;;0.50;;
13708;SDS011;54933;51.908;7.730;2023-03-04T07:47:13;1.27;;;0.47;;
13708;SDS011;54933;51.908;7.730;2023-03-04T07:49:38;1.23;;;0.47;;
13708;SDS011;54933;51.908;7.730;2023-03-04T07:52:04;1.90;;;0.50;;
13708;SDS011;54933;51.908;7.730;2023-03-04T07:54:30;1.40;;;0.40;;
13708;SDS011;54933;51.908;7.730;2023-03-04T07:56:55;1.00;;;0.60;;
13708;SDS011;54933;51.908;7.730;2023-03-04T07:59:21;1.60;;;0.50;;
13708;SDS011;54933;51.908;7.730;2023-03-04T08:01:46;1.40;;;0.47;;
13708;SDS011;54933;51.908;7.730;2023-03-04T08:04:11;0.37;;;0.37;;
13708;SDS011;54933;51.908;7.730;2023-03-04T08:06:38;2.00;;;0.50;;
13708;SDS011;54933;51.908;7.730;2023-03-04T08:09:05;0.30;;;0.30;;
13708;SDS011;54933;51.908;7.730;2023-03-04T08:11:32;1.10;;;0.50;;
13708;SDS011;54933;51.908;7.730;2023-03-04T08:13:58;0.33;;;0.33;;
13708;SDS011;54933;51.908;7.730;2023-03-04T08:16:24;0.13;;;0.13;;
13708;SDS011;54933;51.908;7.730;2023-03-04T08:18:50;2.53;;;0.40;;
13708;SDS011;54933;51.908;7.730;2023-03-04T08:21:18;0.67;;;0.30;;
13708;SDS011;54933;51.908;7.730;2023-03-04T08:23:45;0.43;;;0.20;;
13708;SDS011;54933;51.908;7.730;2023-03-04T08:26:12;0.60;;;0.40;;
13708;SDS011;54933;51.908;7.730;2023-03-04T08:28:43;0.50;;;0.50;;
13708;SDS011;54933;51.908;7.730;2023-03-04T08:31:10;0.17;;;0.17;;
13708;SDS011;54933;51.908;7.730;2023-03-04T08:33:36;1.90;;;0.40;;
13708;SDS011;54933;51.908;7.730;2023-03-04T08:36:02;3.00;;;0.47;;
13708;SDS011;54933;51.908;7.730;2023-03-04T08:38:27;0.30;;;0.30;;
13708;SDS011;54933;51.908;7.730;2023-03-04T08:40:54;2.20;;;0.30;;
13708;SDS011;54933;51.908;7.730;2023-03-04T08:43:20;1.57;;;0.30;;
13708;SDS011;54933;51.908;7.730;2023-03-04T08:45:46;0.60;;;0.27;;
13708;SDS011;54933;51.908;7.730;2023-03-04T08:48:11;0.67;;;0.40;;
13708;SDS011;54933;51.908;7.730;2023-03-04T08:50:36;0.40;;;0.20;;
13708;SDS011;54933;51.908;7.730;2023-03-04T08:53:02;1.70;;;0.37;;
13708;SDS011;54933;51.908;7.730;2023-03-04T08:55:27;0.70;;;0.40;;
13708;SDS011;54933;51.908;7.730;2023-03-04T08:57:52;1.97;;;0.70;;
13708;SDS011;54933;51.908;7.730;2023-03-04T09:00:18;52.47;;;3.50;;
13708;SDS011;54933;51.908;7.730;2023-03-04T09:02:45;28.17;;;2.87;;
13708;SDS011;54933;51.908;7.730;2023-03-04T09:05:10;26.43;;;2.03;;
13708;SDS011;54933;51.908;7.730;2023-03-04T09:07:36;21.00;;;1.57;;
13708;SDS011;54933;51.908;7.730;2023-03-04T09:10:02;10.77;;;1.33;;
13708;SDS011;54933;51.908;7.730;2023-03-04T09:12:28;11.07;;;1.00;;
13708;SDS011;54933;51.908;7.730;2023-03-04T09:14:53;8.97;;;1.00;;
13708;SDS011;54933;51.908;7.730;2023-03-04T09:17:19;16.97;;;2.20;;
13708;SDS011;54933;51.908;7.730;2023-03-04T09:19:44;11.47;;;1.33;;
13708;SDS011;54933;51.908;7.730;2023-03-04T09:22:09;10.97;;;1.63;;
13708;SDS011;54933;51.908;7.730;2023-03-04T09:24:34;15.37;;;1.93;;
13708;SDS011;54933;51.908;7.730;2023-03-04T09:27:00;8.93;;;1.13;;
13708;SDS011;54933;51.908;7.730;2023-03-04T09:29:25;4.07;;;1.00;;
13708;SDS011;54933;51.908;7.730;2023-03-04T09:31:50;9.27;;;0.80;;
13708;SDS011;54933;51.908;7.730;2023-03-04T09:34:16;5.87;;;1.63;;
13708;SDS011;54933;51.908;7.730;2023-03-04T09:36:41;6.33;;;1.10;;
13708;SDS011;54933;51.908;7.730;2023-03-04T09:39:06;7.17;;;0.80;;
13708;SDS011;54933;51.908;7.730;2023-03-04T09:41:53;5.00;;;0.90;;
13708;SDS011;54933;51.908;7.730;2023-03-04T09:47:02;8.60;;;0.80;;
13708;SDS011;54933;51.908;7.730;2023-03-04T09:49:30;4.57;;;0.80;;
13708;SDS011;54933;51.908;7.730;2023-03-04T09:51:58;2.10;;;0.50;;
13708;SDS011;54933;51.908;7.730;2023-03-04T10:03:01;7.00;;;0.70;;
13708;SDS011;54933;51.908;7.730;2023-03-04T10:05:28;111.67;;;7.73;;
13708;SDS011;54933;51.908;7.730;2023-03-04T10:07:57;148.77;;;11.97;;
13708;SDS011;54933;51.908;7.730;2023-03-04T10:10:31;45.87;;;3.70;;
13708;SDS011;54933;51.908;7.730;2023-03-04T10:13:00;28.20;;;2.80;;
13708;SDS011;54933;51.908;7.730;2023-03-04T10:18:01;15.33;;;2.20;;
13708;SDS011;54933;51.908;7.730;2023-03-04T10:20:42;19.53;;;1.57;;
13708;SDS011;54933;51.908;7.730;2023-03-04T10:23:15;28.37;;;2.87;;
13708;SDS011;54933;51.908;7.730;2023-03-04T10:25:43;13.13;;;1.90;;
13708;SDS011;54933;51.908;7.730;2023-03-04T10:28:18;16.87;;;2.10;;
13708;SDS011;54933;51.908;7.730;2023-03-04T10:30:52;17.17;;;1.87;;
13708;SDS011;54933;51.908;7.730;2023-03-04T10:33:30;14.67;;;2.00;;
13708;SDS011;54933;51.908;7.730;2023-03-04T10:36:21;11.10;;;1.90;;
13708;SDS011;54933;51.908;7.730;2023-03-04T10:38:52;18.07;;;1.43;;
13708;SDS011;54933;51.908;7.730;2023-03-04T10:41:21;14.97;;;1.73;;
13708;SDS011;54933;51.908;7.730;2023-03-04T10:46:45;9.73;;;1.47;;
13708;SDS011;54933;51.908;7.730;2023-03-04T10:49:13;15.17;;;1.50;;
13708;SDS011;54933;51.908;7.730;2023-03-04T10:51:43;8.07;;;1.23;;
13708;SDS011;54933;51.908;7.730;2023-03-04T10:54:28;11.23;;;1.60;;
13708;SDS011;54933;51.908;7.730;2023-03-04T10:57:11;12.23;;;1.20;;
13708;SDS011;54933;51.908;7.730;2023-03-04T10:59:59;7.90;;;0.87;;
13708;SDS011;54933;51.908;7.730;2023-03-04T11:02:43;10.07;;;1.27;;
13708;SDS011;54933;51.908;7.730;2023-03-04T11:07:57;5.57;;;1.10;;
13708;SDS011;54933;51.908;7.730;2023-03-04T11:13:02;6.17;;;0.90;;
13708;SDS011;54933;51.908;7.730;2023-03-04T11:18:22;6.30;;;0.87;;
13708;SDS011;54933;51.908;7.730;2023-03-04T11:20:54;1.60;;;0.63;;
13708;SDS011;54933;51.908;7.730;2023-03-04T11:23:24;2.63;;;0.70;;
13708;SDS011;54933;51.908;7.730;2023-03-04T11:26:00;6.40;;;1.07;;
13708;SDS011;54933;51.908;7.730;2023-03-04T11:28:50;3.67;;;1.00;;
13708;SDS011;54933;51.908;7.730;2023-03-04T11:31:27;3.27;;;1.40;;
13708;SDS011;54933;51.908;7.730;2023-03-04T11:34:00;2.43;;;0.57;;
13708;SDS011;54933;51.908;7.730;2023-03-04T11:39:37;0.77;;;0.53;;
13708;SDS011;54933;51.908;7.730;2023-03-04T11:45:15;1.33;;;0.60;;
13708;SDS011;54933;51.908;7.730;2023-03-04T11:51:10;3.13;;;0.70;;
13708;SDS011;54933;51.908;7.730;2023-03-04T11:53:49;5.10;;;0.50;;
13708;SDS011;54933;51.908;7.730;2023-03-04T11:56:43;1.53;;;0.73;;
13708;SDS011;54933;51.908;7.730;2023-03-04T11:59:23;3.67;;;0.40;;
13708;SDS011;54933;51.908;7.730;2023-03-04T12:02:19;2.63;;;0.53;;
13708;SDS011;54933;51.908;7.730;2023-03-04T12:07:37;0.70;;;0.37;;
13708;SDS011;54933;51.908;7.730;2023-03-04T12:13:23;1.80;;;0.60;;
13708;SDS011;54933;51.908;7.730;2023-03-04T12:19:24;4.63;;;1.13;;
13708;SDS011;54933;51.908;7.730;2023-03-04T12:27:20;5.10;;;0.50;;
13708;SDS011;54933;51.908;7.730;2023-03-04T12:29:55;1.63;;;0.33;;
13708;SDS011;54933;51.908;7.730;2023-03-04T12:32:28;1.47;;;0.50;;
13708;SDS011;54933;51.908;7.730;2023-03-04T12:44:13;1.70;;;0.50;;
13708;SDS011;54933;51.908;7.730;2023-03-04T12:46:49;8.17;;;0.40;;
13708;SDS011;54933;51.908;7.730;2023-03-04T12:55:09;1.83;;;0.50;;
13708;SDS011;54933;51.908;7.730;2023-03-04T12:57:41;1.40;;;0.63;;
13708;SDS011;54933;51.908;7.730;2023-03-04T13:00:15;0.40;;;0.30;;
13708;SDS011;54933;51.908;7.730;2023-03-04T13:06:27;0.67;;;0.40;;
13708;SDS011;54933;51.908;7.730;2023-03-04T13:09:29;1.10;;;0.30;;
13708;SDS011;54933;51.908;7.730;2023-03-04T13:14:40;1.50;;;0.40;;
13708;SDS011;54933;51.908;7.730;2023-03-04T13:17:47;1.40;;;0.40;;
13708;SDS011;54933;51.908;7.730;2023-03-04T13:25:32;6.40;;;0.60;;
13708;SDS011;54933;51.908;7.730;2023-03-04T13:38:21;49.47;;;5.70;;
13708;SDS011;54933;51.908;7.730;2023-03-04T13:43:25;27.87;;;2.13;;
13708;SDS011;54933;51.908;7.730;2023-03-04T13:45:52;22.70;;;2.43;;
13708;SDS011;54933;51.908;7.730;2023-03-04T13:51:22;28.40;;;2.97;;
13708;SDS011;54933;51.908;7.730;2023-03-04T13:53:51;24.60;;;3.43;;
13708;SDS011;54933;51.908;7.730;2023-03-04T13:56:23;39.83;;;4.27;;
13708;SDS011;54933;51.908;7.730;2023-03-04T13:59:09;24.30;;;2.47;;
13708;SDS011;54933;51.908;7.730;2023-03-04T14:04:12;17.17;;;1.70;;
13708;SDS011;54933;51.908;7.730;2023-03-04T14:06:42;14.53;;;1.93;;
13708;SDS011;54933;51.908;7.730;2023-03-04T14:09:13;12.37;;;1.50;;
13708;SDS011;54933;51.908;7.730;2023-03-04T14:11:46;7.27;;;1.30;;
13708;SDS011;54933;51.908;7.730;2023-03-04T14:14:39;15.17;;;2.10;;
13708;SDS011;54933;51.908;7.730;2023-03-04T14:17:17;9.30;;;1.37;;
13708;SDS011;54933;51.908;7.730;2023-03-04T14:19:45;14.67;;;1.30;;
13708;SDS011;54933;51.908;7.730;2023-03-04T14:22:27;13.07;;;1.27;;
13708;SDS011;54933;51.908;7.730;2023-03-04T14:25:18;12.40;;;2.00;;
13708;SDS011;54933;51.908;7.730;2023-03-04T14:27:48;7.73;;;1.43;;
13708;SDS011;54933;51.908;7.730;2023-03-04T14:30:24;8.67;;;1.43;;
13708;SDS011;54933;51.908;7.730;2023-03-04T14:32:52;8.97;;;1.20;;
13708;SDS011;54933;51.908;7.730;2023-03-04T14:35:21;6.43;;;0.93;;
13708;SDS011;54933;51.908;7.730;2023-03-04T14:38:02;7.97;;;1.00;;
13708;SDS011;54933;51.908;7.730;2023-03-04T14:40:34;4.17;;;1.10;;
13708;SDS011;54933;51.908;7.730;2023-03-04T14:43:07;3.40;;;0.63;;
13708;SDS011;54933;51.908;7.730;2023-03-04T14:45:39;5.00;;;1.00;;
13708;SDS011;54933;51.908;7.730;2023-03-04T14:48:07;4.47;;;1.03;;
13708;SDS011;54933;51.908;7.730;2023-03-04T14:50:33;8.17;;;2.10;;
13708;SDS011;54933;51.908;7.730;2023-03-04T14:55:33;4.50;;;0.80;;
13708;SDS011;54933;51.908;7.730;2023-03-04T14:58:19;3.07;;;0.80;;
13708;SDS011;54933;51.908;7.730;2023-03-04T15:00:47;6.60;;;0.80;;
13708;SDS011;54933;51.908;7.730;2023-03-04T15:03:20;5.87;;;0.90;;
13708;SDS011;54933;51.908;7.730;2023-03-04T15:05:48;1.93;;;0.60;;
13708;SDS011;54933;51.908;7.730;2023-03-04T15:08:23;5.10;;;0.93;;
13708;SDS011;54933;51.908;7.730;2023-03-04T15:10:56;3.60;;;1.03;;
13708;SDS011;54933;51.908;7.730;2023-03-04T15:13:39;4.03;;;0.70;;
13708;SDS011;54933;51.908;7.730;2023-03-04T15:16:07;4.10;;;0.60;;
13708;SDS011;54933;51.908;7.730;2023-03-04T15:18:34;3.07;;;0.90;;
13708;SDS011;54933;51.908;7.730;2023-03-04T15:21:01;3.60;;;0.70;;
13708;SDS011;54933;51.908;7.730;2023-03-04T15:23:31;2.90;;;0.47;;
13708;SDS011;54933;51.908;7.730;2023-03-04T15:25:58;3.40;;;0.57;;
13708;SDS011;54933;51.908;7.730;2023-03-04T15:28:25;1.23;;;0.50;;
13708;SDS011;54933;51.908;7.730;2023-03-04T15:30:56;3.33;;;0.63;;
13708;SDS011;54933;51.908;7.730;2023-03-04T15:33:21;0.83;;;0.43;;
13708;SDS011;54933;51.908;7.730;2023-03-04T15:35:48;3.53;;;0.70;;
13708;SDS011;54933;51.908;7.730;2023-03-04T15:38:17;2.30;;;0.77;;
13708;SDS011;54933;51.908;7.730;2023-03-04T15:40:43;2.57;;;0.53;;
13708;SDS011;54933;51.908;7.730;2023-03-04T15:43:10;1.63;;;0.63;;
13708;SDS011;54933;51.908;7.730;2023-03-04T15:45:39;1.27;;;0.50;;
13708;SDS011;54933;51.908;7.730;2023-03-04T15:48:09;1.40;;;0.40;;
13708;SDS011;54933;51.908;7.730;2023-03-04T15:50:37;2.10;;;0.93;;
13708;SDS011;54933;51.908;7.730;2023-03-04T15:53:06;3.87;;;0.60;;
13708;SDS011;54933;51.908;7.730;2023-03-04T15:55:37;1.53;;;0.50;;
13708;SDS011;54933;51.908;7.730;2023-03-04T15:58:02;0.90;;;0.50;;
13708;SDS011;54933;51.908;7.730;2023-03-04T16:00:28;1.83;;;0.63;;
13708;SDS011;54933;51.908;7.730;2023-03-04T16:02:54;0.93;;;0.60;;
13708;SDS011;54933;51.908;7.730;2023-03-04T16:05:20;0.90;;;0.33;;
13708;SDS011;54933;51.908;7.730;2023-03-04T16:07:46;1.17;;;0.43;;
13708;SDS011;54933;51.908;7.730;2023-03-04T16:10:21;0.33;;;0.30;;
13708;SDS011;54933;51.908;7.730;2023-03-04T16:12:50;4.00;;;0.40;;
13708;SDS011;54933;51.908;7.730;2023-03-04T16:15:18;1.33;;;0.40;;
13708;SDS011;54933;51.908;7.730;2023-03-04T16:17:48;3.63;;;0.60;;
13708;SDS011;54933;51.908;7.730;2023-03-04T16:20:15;0.93;;;0.40;;
13708;SDS011;54933;51.908;7.730;2023-03-04T16:22:43;2.77;;;0.47;;
13708;SDS011;54933;51.908;7.730;2023-03-04T16:25:11;2.47;;;0.40;;
13708;SDS011;54933;51.908;7.730;2023-03-04T16:27:39;2.03;;;0.47;;
13708;SDS011;54933;51.908;7.730;2023-03-04T16:30:06;0.30;;;0.30;;
13708;SDS011;54933;51.908;7.730;2023-03-04T16:32:52;1.07;;;0.60;;